createdAt,value
2018-11-03T00:00:46.805Z,99.90
2018-11-03T00:03:14.541Z,99.90
2018-11-03T00:05:42.309Z,99.90
2018-11-03T00:08:09.968Z,99.90
2018-11-03T00:10:37.702Z,99.90
2018-11-03T00:13:05.713Z,99.90
2018-11-03T00:15:33.548Z,99.90
2018-11-03T00:18:01.260Z,99.90
2018-11-03T00:20:29.030Z,99.90
2018-11-03T00:22:56.738Z,99.90
2018-11-03T00:25:24.535Z,99.90
2018-11-03T00:27:52.235Z,99.90
2018-11-03T00:30:19.986Z,99.90
2018-11-03T00:32:48.638Z,99.90
2018-11-03T00:35:16.376Z,99.90
2018-11-03T00:37:44.230Z,99.90
2018-11-03T00:40:13.986Z,99.90
2018-11-03T00:42:42.176Z,99.90
2018-11-03T00:45:10.916Z,99.90
2018-11-03T00:47:39.278Z,99.90
2018-11-03T00:50:08.069Z,99.90
2018-11-03T00:52:35.792Z,99.90
2018-11-03T00:55:03.829Z,99.90
2018-11-03T00:57:31.548Z,99.90
2018-11-03T00:59:59.262Z,99.90
2018-11-03T01:02:27.002Z,99.90
2018-11-03T01:04:54.911Z,99.90
2018-11-03T01:07:22.676Z,99.90
2018-11-03T01:09:50.474Z,99.90
2018-11-03T01:12:18.180Z,99.90
2018-11-03T01:14:45.891Z,99.90
2018-11-03T01:17:13.593Z,99.90
2018-11-03T01:19:41.340Z,99.90
2018-11-03T01:22:09.107Z,99.90
2018-11-03T01:24:36.849Z,99.90
2018-11-03T01:27:04.873Z,99.90
2018-11-03T01:29:32.633Z,99.90
2018-11-03T01:32:00.336Z,99.90
2018-11-03T01:34:28.052Z,99.90
2018-11-03T01:36:55.834Z,99.90
2018-11-03T01:39:23.577Z,99.90
2018-11-03T01:41:51.293Z,99.90
2018-11-03T01:44:18.993Z,99.90
2018-11-03T01:46:46.689Z,99.90
2018-11-03T01:49:14.403Z,99.90
2018-11-03T01:51:42.117Z,99.90
2018-11-03T01:54:09.821Z,99.90
2018-11-03T01:56:37.552Z,99.90
2018-11-03T01:59:05.366Z,99.90
2018-11-03T02:01:33.102Z,99.90
2018-11-03T02:04:00.872Z,99.90
2018-11-03T02:06:28.589Z,99.90
2018-11-03T02:08:56.317Z,99.90
2018-11-03T02:11:24.037Z,99.90
2018-11-03T02:13:51.813Z,99.90
2018-11-03T02:16:19.573Z,99.90
2018-11-03T02:18:47.281Z,99.90
2018-11-03T02:21:15.018Z,99.90
2018-11-03T02:23:42.729Z,99.90
2018-11-03T02:26:10.428Z,99.90
2018-11-03T02:28:38.142Z,99.90
2018-11-03T02:31:05.905Z,99.90
2018-11-03T02:33:33.653Z,99.90
2018-11-03T02:36:01.420Z,99.90
2018-11-03T02:38:29.152Z,99.90
2018-11-03T02:40:56.897Z,99.90
2018-11-03T02:43:24.656Z,99.90
2018-11-03T02:45:52.440Z,99.90
2018-11-03T02:48:20.128Z,99.90
2018-11-03T02:50:47.848Z,99.90
2018-11-03T02:53:15.573Z,99.90
2018-11-03T02:55:43.313Z,99.90
2018-11-03T02:58:11.017Z,99.90
2018-11-03T03:00:38.773Z,99.90
2018-11-03T03:03:06.464Z,99.90
2018-11-03T03:05:34.165Z,99.90
2018-11-03T03:08:01.862Z,99.90
2018-11-03T03:10:29.545Z,99.90
2018-11-03T03:12:57.250Z,99.90
2018-11-03T03:15:24.972Z,99.90
2018-11-03T03:17:52.711Z,99.90
2018-11-03T03:20:20.382Z,99.90
2018-11-03T03:22:48.118Z,99.90
2018-11-03T03:25:15.849Z,99.90
2018-11-03T03:27:43.560Z,99.90
2018-11-03T03:30:11.463Z,99.90
2018-11-03T03:32:39.444Z,99.90
2018-11-03T03:35:07.609Z,99.90
2018-11-03T03:37:35.344Z,99.90
2018-11-03T03:40:03.343Z,99.90
2018-11-03T03:42:31.096Z,99.90
2018-11-03T03:44:58.749Z,99.90
2018-11-03T03:47:26.441Z,99.90
2018-11-03T03:49:54.120Z,99.90
2018-11-03T03:52:21.826Z,99.90
2018-11-03T03:54:49.567Z,99.90
2018-11-03T03:57:17.249Z,99.90
2018-11-03T03:59:44.966Z,99.90
2018-11-03T04:02:12.648Z,99.90
2018-11-03T04:04:40.345Z,99.90
2018-11-03T04:07:08.026Z,99.90
2018-11-03T04:09:35.731Z,99.90
2018-11-03T04:12:03.534Z,99.90
2018-11-03T04:14:31.252Z,99.90
2018-11-03T04:16:58.951Z,99.90
2018-11-03T04:19:26.659Z,99.90
2018-11-03T04:21:54.361Z,99.90
2018-11-03T04:24:22.084Z,99.90
2018-11-03T04:26:49.794Z,99.90
2018-11-03T04:29:17.482Z,99.90
2018-11-03T04:31:45.172Z,99.90
2018-11-03T04:34:12.868Z,99.90
2018-11-03T04:36:40.598Z,99.90
2018-11-03T04:39:08.312Z,99.90
2018-11-03T04:41:36.033Z,99.90
2018-11-03T04:44:03.785Z,99.90
2018-11-03T04:46:31.473Z,99.90
2018-11-03T04:49:02.909Z,99.90
2018-11-03T04:51:31.853Z,99.90
2018-11-03T04:53:59.593Z,99.90
2018-11-03T04:56:27.405Z,99.90
2018-11-03T04:58:55.417Z,99.90
2018-11-03T05:01:23.138Z,99.90
2018-11-03T05:03:50.853Z,99.90
2018-11-03T05:06:18.622Z,99.90
2018-11-03T05:08:46.675Z,99.90
2018-11-03T05:11:14.365Z,99.90
2018-11-03T05:13:42.150Z,99.90
2018-11-03T05:16:09.854Z,99.90
2018-11-03T05:18:37.565Z,99.90
2018-11-03T05:21:05.636Z,99.90
2018-11-03T05:23:33.420Z,99.90
2018-11-03T05:26:01.109Z,99.90
2018-11-03T05:28:28.845Z,99.90
2018-11-03T05:30:56.550Z,99.90
2018-11-03T05:33:24.300Z,99.90
2018-11-03T05:35:51.973Z,99.90
2018-11-03T05:38:19.701Z,99.90
2018-11-03T05:40:47.401Z,99.90
2018-11-03T05:43:15.117Z,99.90
2018-11-03T05:45:42.833Z,99.90
2018-11-03T05:48:10.540Z,99.90
2018-11-03T05:50:38.248Z,99.90
2018-11-03T05:53:05.964Z,99.90
2018-11-03T05:55:33.681Z,99.90
2018-11-03T05:58:01.411Z,99.90
2018-11-03T06:00:29.097Z,99.90
2018-11-03T06:02:58.088Z,99.90
2018-11-03T06:05:25.821Z,99.90
2018-11-03T06:07:53.725Z,99.90
2018-11-03T06:10:21.453Z,99.90
2018-11-03T06:12:49.157Z,99.90
2018-11-03T06:15:17.095Z,99.90
2018-11-03T06:17:44.755Z,99.90
2018-11-03T06:20:12.469Z,99.90
2018-11-03T06:22:40.246Z,99.90
2018-11-03T06:25:08.493Z,99.90
2018-11-03T06:27:36.570Z,99.90
2018-11-03T06:30:05.924Z,99.90
2018-11-03T06:32:33.698Z,99.90
2018-11-03T06:35:01.477Z,99.90
2018-11-03T06:37:29.208Z,99.90
2018-11-03T06:39:56.928Z,99.90
2018-11-03T06:42:24.659Z,99.90
2018-11-03T06:44:52.370Z,99.90
2018-11-03T06:47:20.192Z,99.90
2018-11-03T06:49:47.837Z,99.90
2018-11-03T06:52:15.666Z,99.90
2018-11-03T06:54:43.260Z,99.90
2018-11-03T06:57:10.964Z,99.90
2018-11-03T06:59:38.653Z,99.90
2018-11-03T07:02:06.370Z,99.90
2018-11-03T07:04:34.069Z,99.90
2018-11-03T07:07:01.865Z,99.90
2018-11-03T07:09:29.549Z,99.90
2018-11-03T07:11:57.302Z,99.90
2018-11-03T07:14:24.956Z,99.90
2018-11-03T07:16:52.664Z,99.90
2018-11-03T07:19:20.373Z,99.90
2018-11-03T07:21:48.140Z,99.90
2018-11-03T07:24:15.801Z,99.90
2018-11-03T07:26:43.512Z,99.90
2018-11-03T07:29:11.201Z,99.90
2018-11-03T07:31:38.910Z,99.90
2018-11-03T07:34:06.704Z,99.90
2018-11-03T07:36:34.425Z,99.90
2018-11-03T07:39:02.144Z,99.90
2018-11-03T07:41:29.970Z,99.90
2018-11-03T07:43:57.572Z,99.90
2018-11-03T07:46:25.312Z,99.90
2018-11-03T07:48:53.177Z,99.90
2018-11-03T07:51:20.734Z,99.90
2018-11-03T07:53:48.521Z,99.90
2018-11-03T07:56:16.262Z,99.90
2018-11-03T07:58:43.961Z,99.90
2018-11-03T08:01:11.695Z,99.90
2018-11-03T08:03:39.463Z,99.90
2018-11-03T08:06:07.193Z,99.90
2018-11-03T08:08:34.885Z,95.90
2018-11-03T08:11:02.596Z,92.70
2018-11-03T08:13:30.297Z,91.70
2018-11-03T08:15:58.054Z,90.00
2018-11-03T08:18:25.752Z,78.60
2018-11-03T08:20:53.498Z,72.60
2018-11-03T08:23:21.490Z,67.20
2018-11-03T08:25:49.220Z,66.80
2018-11-03T08:28:16.912Z,61.00
2018-11-03T08:30:44.634Z,71.10
2018-11-03T08:33:12.385Z,75.90
2018-11-03T08:35:40.085Z,79.40
2018-11-03T08:38:07.805Z,83.80
2018-11-03T08:40:35.502Z,86.60
2018-11-03T08:43:03.222Z,87.90
2018-11-03T08:45:30.888Z,76.00
2018-11-03T08:47:58.690Z,75.60
2018-11-03T08:50:26.387Z,82.80
2018-11-03T08:52:54.172Z,84.80
2018-11-03T08:55:21.917Z,83.50
2018-11-03T08:57:49.652Z,74.10
2018-11-03T09:00:17.462Z,77.90
2018-11-03T09:02:45.158Z,83.10
2018-11-03T09:05:12.865Z,89.90
2018-11-03T09:07:40.716Z,92.50
2018-11-03T09:10:10.652Z,89.90
2018-11-03T09:12:38.433Z,82.10
2018-11-03T09:15:07.957Z,75.00
2018-11-03T09:17:36.525Z,71.00
2018-11-03T09:20:05.157Z,75.20
2018-11-03T09:22:32.884Z,73.60
2018-11-03T09:25:00.586Z,72.50
2018-11-03T09:27:28.355Z,71.70
2018-11-03T09:29:56.060Z,63.30
2018-11-03T09:32:23.773Z,64.70
2018-11-03T09:34:51.573Z,67.70
2018-11-03T09:37:19.203Z,75.10
2018-11-03T09:39:46.905Z,81.20
2018-11-03T09:42:14.631Z,73.40
2018-11-03T09:44:42.342Z,71.80
2018-11-03T09:47:10.101Z,66.50
2018-11-03T09:49:37.828Z,58.80
2018-11-03T09:52:05.625Z,54.50
2018-11-03T09:54:33.350Z,52.80
2018-11-03T09:57:01.066Z,57.00
2018-11-03T09:59:28.777Z,50.80
2018-11-03T10:01:56.512Z,45.90
2018-11-03T10:04:24.211Z,46.70
2018-11-03T10:06:51.936Z,43.60
2018-11-03T10:09:19.637Z,42.00
2018-11-03T10:11:47.363Z,44.90
2018-11-03T10:14:15.086Z,44.80
2018-11-03T10:16:42.808Z,42.70
2018-11-03T10:19:10.539Z,40.40
2018-11-03T10:21:38.258Z,38.50
2018-11-03T10:24:05.948Z,36.60
2018-11-03T10:26:33.720Z,40.70
2018-11-03T10:29:01.438Z,48.10
2018-11-03T10:31:29.234Z,53.40
2018-11-03T10:33:56.958Z,53.50
2018-11-03T10:36:24.663Z,48.30
2018-11-03T10:38:52.424Z,47.60
2018-11-03T10:41:20.117Z,46.80
2018-11-03T10:43:47.864Z,40.60
2018-11-03T10:46:15.673Z,35.70
2018-11-03T10:48:43.361Z,35.30
2018-11-03T10:51:11.084Z,38.60
2018-11-03T10:53:38.900Z,36.60
2018-11-03T10:56:06.591Z,37.00
2018-11-03T10:58:34.328Z,39.70
2018-11-03T11:01:07.583Z,39.30
2018-11-03T11:03:40.835Z,42.70
2018-11-03T11:06:14.157Z,39.50
2018-11-03T11:08:47.679Z,40.60
2018-11-03T11:11:21.065Z,41.50
2018-11-03T11:13:48.795Z,38.10
2018-11-03T11:16:16.550Z,39.90
2018-11-03T11:18:44.245Z,41.40
2018-11-03T11:21:11.996Z,43.90
2018-11-03T11:23:39.802Z,44.50
2018-11-03T11:26:07.470Z,48.10
2018-11-03T11:28:35.191Z,44.30
2018-11-03T11:31:02.928Z,44.60
2018-11-03T11:33:30.662Z,41.00
2018-11-03T11:35:58.386Z,39.10
2018-11-03T11:38:26.118Z,40.70
2018-11-03T11:40:53.815Z,41.20
2018-11-03T11:43:21.570Z,40.90
2018-11-03T11:45:49.345Z,40.30
2018-11-03T11:48:17.096Z,41.20
2018-11-03T11:50:44.812Z,40.80
2018-11-03T11:53:12.541Z,39.10
2018-11-03T11:55:40.278Z,38.00
2018-11-03T11:58:08.035Z,40.40
2018-11-03T12:00:35.780Z,39.70
2018-11-03T12:03:03.521Z,36.50
2018-11-03T12:05:31.235Z,33.80
2018-11-03T12:07:58.959Z,35.30
2018-11-03T12:10:26.658Z,34.00
2018-11-03T12:12:54.422Z,32.90
2018-11-03T12:15:22.149Z,30.00
2018-11-03T12:17:49.873Z,29.20
2018-11-03T12:20:17.646Z,28.90
2018-11-03T12:22:45.372Z,28.10
2018-11-03T12:25:13.077Z,29.50
2018-11-03T12:27:40.875Z,29.20
2018-11-03T12:30:11.970Z,27.40
2018-11-03T12:32:40.087Z,31.10
2018-11-03T12:35:07.852Z,29.80
2018-11-03T12:37:36.058Z,28.00
2018-11-03T12:40:04.166Z,29.70
2018-11-03T12:42:31.937Z,28.70
2018-11-03T12:44:59.656Z,29.50
2018-11-03T12:47:27.469Z,30.10
2018-11-03T12:50:00.235Z,29.90
2018-11-03T12:52:29.245Z,28.30
2018-11-03T12:54:57.004Z,27.30
2018-11-03T12:57:24.722Z,27.80
2018-11-03T12:59:52.433Z,27.70
2018-11-03T13:02:20.147Z,28.90
2018-11-03T13:04:47.954Z,30.90
2018-11-03T13:07:15.633Z,30.30
2018-11-03T13:09:43.514Z,30.50
2018-11-03T13:12:11.156Z,32.60
2018-11-03T13:14:38.813Z,32.10
2018-11-03T13:17:06.537Z,30.00
2018-11-03T13:19:34.272Z,29.30
2018-11-03T13:22:01.972Z,29.00
2018-11-03T13:24:29.715Z,30.70
2018-11-03T13:26:57.428Z,31.20
2018-11-03T13:29:25.167Z,30.60
2018-11-03T13:31:52.960Z,29.20
2018-11-03T13:34:20.672Z,30.20
2018-11-03T13:36:48.393Z,30.60
2018-11-03T13:39:16.084Z,30.70
2018-11-03T13:41:43.812Z,28.70
2018-11-03T13:44:11.537Z,29.60
2018-11-03T13:46:39.272Z,28.90
2018-11-03T13:49:07.018Z,30.70
2018-11-03T13:51:34.741Z,29.90
2018-11-03T13:54:02.462Z,30.50
2018-11-03T13:56:30.396Z,32.10
2018-11-03T13:58:58.093Z,29.80
2018-11-03T14:01:25.838Z,30.10
2018-11-03T14:03:53.539Z,30.70
2018-11-03T14:06:21.261Z,31.50
2018-11-03T14:08:49.054Z,30.70
2018-11-03T14:11:16.840Z,30.70
2018-11-03T14:13:44.524Z,30.30
2018-11-03T14:16:12.305Z,32.20
2018-11-03T14:18:40.265Z,33.30
2018-11-03T14:21:07.975Z,33.80
2018-11-03T14:23:35.792Z,31.70
2018-11-03T14:26:03.531Z,31.30
2018-11-03T14:28:31.317Z,31.80
2018-11-03T14:30:59.041Z,31.80
2018-11-03T14:33:26.834Z,33.50
2018-11-03T14:35:54.509Z,33.10
2018-11-03T14:38:22.246Z,31.50
2018-11-03T14:40:56.522Z,31.50
2018-11-03T14:43:24.210Z,32.70
2018-11-03T14:45:51.963Z,32.80
2018-11-03T14:48:19.666Z,31.80
2018-11-03T14:50:47.486Z,32.50
2018-11-03T14:53:15.222Z,32.20
2018-11-03T14:55:42.964Z,32.40
2018-11-03T14:58:10.707Z,31.70
2018-11-03T15:00:38.537Z,33.80
2018-11-03T15:03:07.023Z,35.30
2018-11-03T15:05:34.741Z,36.50
2018-11-03T15:08:02.502Z,35.40
2018-11-03T15:10:30.197Z,36.30
2018-11-03T15:12:57.928Z,37.10
2018-11-03T15:15:25.649Z,36.60
2018-11-03T15:18:00.062Z,38.30
2018-11-03T15:20:27.752Z,37.40
2018-11-03T15:22:55.489Z,38.00
2018-11-03T15:25:23.184Z,38.10
2018-11-03T15:27:50.884Z,39.80
2018-11-03T15:30:18.575Z,42.70
2018-11-03T15:32:46.309Z,42.90
2018-11-03T15:35:14.042Z,43.90
2018-11-03T15:37:41.753Z,44.40
2018-11-03T15:40:11.479Z,45.50
2018-11-03T15:42:39.241Z,45.40
2018-11-03T15:45:09.360Z,47.10
2018-11-03T15:47:37.108Z,47.90
2018-11-03T15:50:05.749Z,49.10
2018-11-03T15:52:33.493Z,50.90
2018-11-03T15:55:01.231Z,53.10
2018-11-03T15:57:28.917Z,53.80
2018-11-03T15:59:56.649Z,53.00
2018-11-03T16:02:24.437Z,51.10
2018-11-03T16:04:52.148Z,55.20
2018-11-03T16:07:19.871Z,60.80
2018-11-03T16:09:47.597Z,56.00
2018-11-03T16:12:15.377Z,61.60
2018-11-03T16:14:43.061Z,62.30
2018-11-03T16:17:10.765Z,67.70
2018-11-03T16:19:38.541Z,67.10
2018-11-03T16:22:06.318Z,70.00
2018-11-03T16:24:34.047Z,70.60
2018-11-03T16:27:01.770Z,74.10
2018-11-03T16:29:29.532Z,74.50
2018-11-03T16:31:57.291Z,73.20
2018-11-03T16:34:24.980Z,71.40
2018-11-03T16:36:52.681Z,71.40
2018-11-03T16:39:20.409Z,73.50
2018-11-03T16:41:48.132Z,73.10
2018-11-03T16:44:16.025Z,72.70
2018-11-03T16:46:43.739Z,75.00
2018-11-03T16:49:12.130Z,75.40
2018-11-03T16:51:39.846Z,72.60
2018-11-03T16:54:07.565Z,67.30
2018-11-03T16:56:35.276Z,73.30
2018-11-03T16:59:02.977Z,76.00
2018-11-03T17:01:30.692Z,76.60
2018-11-03T17:03:58.399Z,78.40
2018-11-03T17:06:26.113Z,78.90
2018-11-03T17:08:53.804Z,79.40
2018-11-03T17:11:21.526Z,80.80
2018-11-03T17:13:49.215Z,80.50
2018-11-03T17:16:16.938Z,80.50
2018-11-03T17:18:44.740Z,82.50
2018-11-03T17:21:15.297Z,82.10
2018-11-03T17:23:43.102Z,83.20
2018-11-03T17:26:10.839Z,83.60
2018-11-03T17:28:38.536Z,84.10
2018-11-03T17:31:06.534Z,85.80
2018-11-03T17:33:34.237Z,89.10
2018-11-03T17:36:01.960Z,90.70
2018-11-03T17:38:29.739Z,91.50
2018-11-03T17:40:57.636Z,92.30
2018-11-03T17:43:25.417Z,92.80
2018-11-03T17:45:53.141Z,93.60
2018-11-03T17:48:20.872Z,94.40
2018-11-03T17:50:48.637Z,95.20
2018-11-03T17:53:16.369Z,95.60
2018-11-03T17:55:44.158Z,95.80
2018-11-03T17:58:11.856Z,96.00
2018-11-03T18:00:39.647Z,96.80
2018-11-03T18:03:07.284Z,97.30
2018-11-03T18:05:35.005Z,97.80
2018-11-03T18:08:02.768Z,98.50
2018-11-03T18:10:30.501Z,98.50
2018-11-03T18:12:58.276Z,99.90
2018-11-03T18:15:26.004Z,99.90
2018-11-03T18:17:53.737Z,99.90
2018-11-03T18:20:21.432Z,99.90
2018-11-03T18:22:49.152Z,99.90
2018-11-03T18:25:16.868Z,99.90
2018-11-03T18:27:44.611Z,99.90
2018-11-03T18:30:12.982Z,99.90
2018-11-03T18:32:41.260Z,99.90
2018-11-03T18:35:09.210Z,99.90
2018-11-03T18:37:37.019Z,99.90
2018-11-03T18:40:05.730Z,99.90
2018-11-03T18:42:33.462Z,99.90
2018-11-03T18:45:01.209Z,99.90
2018-11-03T18:47:28.913Z,99.90
2018-11-03T18:49:56.639Z,99.90
2018-11-03T18:52:24.377Z,99.90
2018-11-03T18:54:52.137Z,99.90
2018-11-03T18:57:19.968Z,99.90
2018-11-03T18:59:47.815Z,99.90
2018-11-03T19:02:15.547Z,99.90
2018-11-03T19:04:43.315Z,99.90
2018-11-03T19:07:11.013Z,99.90
2018-11-03T19:09:38.730Z,99.90
2018-11-03T19:12:06.858Z,99.90
2018-11-03T19:14:34.989Z,99.90
2018-11-03T19:17:02.744Z,98.80
2018-11-03T19:19:30.445Z,97.20
2018-11-03T19:21:59.184Z,96.80
2018-11-03T19:24:27.769Z,95.60
2018-11-03T19:26:56.738Z,93.20
2018-11-03T19:29:24.528Z,93.70
2018-11-03T19:31:52.274Z,94.80
2018-11-03T19:34:19.997Z,95.00
2018-11-03T19:36:47.717Z,95.20
2018-11-03T19:39:15.439Z,95.00
2018-11-03T19:41:43.250Z,96.00
2018-11-03T19:44:10.929Z,96.30
2018-11-03T19:46:38.643Z,96.50
2018-11-03T19:49:06.549Z,96.70
2018-11-03T19:51:34.330Z,97.40
2018-11-03T19:54:02.022Z,98.30
2018-11-03T19:56:29.763Z,99.50
2018-11-03T19:58:57.477Z,99.30
2018-11-03T20:01:25.197Z,99.40
2018-11-03T20:03:52.923Z,99.90
2018-11-03T20:06:20.629Z,99.90
2018-11-03T20:08:48.422Z,99.90
2018-11-03T20:11:16.130Z,99.90
2018-11-03T20:13:43.915Z,98.80
2018-11-03T20:16:11.612Z,98.40
2018-11-03T20:18:39.328Z,97.90
2018-11-03T20:21:07.043Z,97.60
2018-11-03T20:23:34.765Z,96.60
2018-11-03T20:26:02.550Z,97.30
2018-11-03T20:28:30.240Z,97.90
2018-11-03T20:30:57.958Z,96.60
2018-11-03T20:33:25.677Z,95.60
2018-11-03T20:35:53.404Z,95.00
2018-11-03T20:38:21.134Z,93.90
2018-11-03T20:40:48.859Z,92.70
2018-11-03T20:43:16.592Z,92.10
2018-11-03T20:45:44.319Z,92.40
2018-11-03T20:48:12.046Z,92.30
2018-11-03T20:50:39.751Z,93.40
2018-11-03T20:53:07.505Z,93.50
2018-11-03T20:55:35.249Z,93.70
2018-11-03T20:58:02.942Z,94.10
2018-11-03T21:00:30.653Z,94.30
2018-11-03T21:02:58.349Z,95.00
2018-11-03T21:05:26.091Z,94.70
2018-11-03T21:07:53.871Z,95.00
2018-11-03T21:10:21.605Z,95.80
2018-11-03T21:12:49.313Z,95.80
2018-11-03T21:15:17.055Z,96.40
2018-11-03T21:17:44.750Z,96.50
2018-11-03T21:20:12.479Z,96.10
2018-11-03T21:22:40.242Z,96.60
2018-11-03T21:25:07.993Z,96.90
2018-11-03T21:27:35.745Z,96.10
2018-11-03T21:30:05.332Z,96.80
2018-11-03T21:32:33.027Z,97.60
2018-11-03T21:35:00.729Z,97.70
2018-11-03T21:37:28.470Z,97.20
2018-11-03T21:39:56.249Z,98.40
2018-11-03T21:42:23.968Z,98.70
2018-11-03T21:44:51.685Z,98.30
2018-11-03T21:47:19.453Z,98.90
2018-11-03T21:49:47.178Z,99.20
2018-11-03T21:52:16.874Z,99.80
2018-11-03T21:54:44.614Z,99.80
2018-11-03T21:57:12.381Z,99.60
2018-11-03T21:59:40.142Z,99.90
2018-11-03T22:02:07.869Z,99.90
2018-11-03T22:04:35.609Z,99.90
2018-11-03T22:07:03.342Z,99.90
2018-11-03T22:09:31.029Z,99.90
2018-11-03T22:11:58.756Z,99.90
2018-11-03T22:14:26.476Z,99.90
2018-11-03T22:16:54.184Z,99.90
2018-11-03T22:19:21.880Z,99.90
2018-11-03T22:21:49.666Z,99.90
2018-11-03T22:24:17.303Z,99.90
2018-11-03T22:26:45.029Z,99.90
2018-11-03T22:29:12.736Z,99.90
2018-11-03T22:31:40.462Z,99.90
2018-11-03T22:34:08.227Z,99.90
2018-11-03T22:36:36.004Z,99.90
2018-11-03T22:39:05.190Z,99.90
2018-11-03T22:41:32.931Z,99.90
2018-11-03T22:44:00.649Z,99.90
2018-11-03T22:46:28.370Z,99.90
2018-11-03T22:48:56.086Z,99.90
2018-11-03T22:51:23.846Z,99.90
2018-11-03T22:53:51.535Z,99.90
2018-11-03T22:56:19.434Z,99.90
2018-11-03T22:58:47.187Z,99.90
2018-11-03T23:01:14.932Z,99.90
2018-11-03T23:03:42.682Z,99.90
2018-11-03T23:06:10.389Z,99.90
2018-11-03T23:08:38.136Z,99.90
2018-11-03T23:11:05.863Z,99.90
2018-11-03T23:13:33.633Z,99.90
2018-11-03T23:16:01.351Z,99.90
2018-11-03T23:18:29.133Z,99.90
2018-11-03T23:20:56.845Z,99.90
2018-11-03T23:23:24.568Z,99.90
2018-11-03T23:25:52.268Z,99.90
2018-11-03T23:28:19.996Z,99.90
2018-11-03T23:30:47.673Z,99.90
2018-11-03T23:33:15.373Z,99.90
2018-11-03T23:35:43.121Z,99.90
2018-11-03T23:38:10.907Z,99.90
2018-11-03T23:40:38.593Z,99.90
2018-11-03T23:43:06.314Z,99.90
2018-11-03T23:45:34.059Z,99.90
2018-11-03T23:48:01.774Z,99.90
2018-11-03T23:50:29.575Z,99.90
2018-11-03T23:52:57.235Z,99.90
2018-11-03T23:55:25.105Z,99.90
2018-11-03T23:57:52.804Z,99.90
